Time;durP1;ratioP1;P1;durP2;ratioP2;P2;SDS_P1;SDS_P2;PMS_P1;PMS_P2;Temp;Humidity;BMP_temperature;BMP_pressure;BME280_temperature;BME280_humidity;BME280_pressure;Samples;Min_cycle;Max_cycle;Signal;HPM_P1;HPM_P2
2022/07/10 00:00:13;;;;;;;7.68;1.48;;;14.50;99.90;;;;;;5014615;28;20034;-64
2022/07/10 00:02:40;;;;;;;9.45;1.95;;;14.30;99.90;;;;;;5013481;28;20037;-66
2022/07/10 00:05:07;;;;;;;5.18;1.17;;;14.40;99.90;;;;;;5025981;28;20072;-65
2022/07/10 00:07:32;;;;;;;7.78;1.25;;;14.40;99.90;;;;;;5025630;28;20052;-65
2022/07/10 00:09:58;;;;;;;8.52;1.70;;;14.30;99.90;;;;;;5013772;28;20038;-64
2022/07/10 00:12:24;;;;;;;5.00;1.23;;;14.40;99.90;;;;;;5014113;28;20034;-65
2022/07/10 00:14:50;;;;;;;7.40;1.70;;;14.30;99.90;;;;;;5029960;28;20045;-64
2022/07/10 00:17:15;;;;;;;9.95;1.65;;;14.40;99.90;;;;;;5023519;28;20045;-65
2022/07/10 00:19:41;;;;;;;6.38;1.63;;;14.30;99.90;;;;;;5027850;28;20068;-65
2022/07/10 00:22:06;;;;;;;5.55;1.48;;;14.30;99.90;;;;;;5012382;28;20033;-65
2022/07/10 00:24:32;;;;;;;5.95;1.35;;;14.20;99.90;;;;;;5022827;28;20033;-65
2022/07/10 00:26:58;;;;;;;7.15;1.20;;;14.30;99.90;;;;;;5017320;28;20049;-65
2022/07/10 00:29:24;;;;;;;6.13;1.58;;;14.40;99.90;;;;;;5013004;28;20511;-65
2022/07/10 00:31:49;;;;;;;6.45;1.67;;;14.10;99.90;;;;;;5013704;28;20034;-66
2022/07/10 00:34:15;;;;;;;6.40;1.50;;;14.20;99.90;;;;;;5012221;28;20055;-64
2022/07/10 00:36:40;;;;;;;6.10;1.52;;;14.00;99.90;;;;;;5013544;28;20531;-65
2022/07/10 00:39:06;;;;;;;9.90;1.80;;;13.90;99.90;;;;;;5011905;28;20053;-65
2022/07/10 00:41:32;;;;;;;8.88;2.17;;;14.20;99.90;;;;;;5013361;28;20045;-65
2022/07/10 00:44:00;;;;;;;8.77;1.65;;;13.90;99.90;;;;;;5012104;28;20046;-65
2022/07/10 00:46:27;;;;;;;7.05;1.38;;;13.70;99.90;;;;;;5013437;28;20496;-65
2022/07/10 00:48:53;;;;;;;8.43;1.60;;;13.80;99.90;;;;;;5013510;28;20042;-65
2022/07/10 00:51:21;;;;;;;4.97;1.40;;;13.70;99.90;;;;;;4999671;28;20125;-65
2022/07/10 00:53:51;;;;;;;4.18;1.20;;;13.70;99.90;;;;;;5013451;28;20042;-64
2022/07/10 00:56:19;;;;;;;8.35;1.40;;;13.60;99.90;;;;;;5031186;28;20503;-65
2022/07/10 00:58:46;;;;;;;7.28;1.30;;;13.60;99.90;;;;;;5022155;28;20455;-64
2022/07/10 01:01:12;;;;;;;7.85;1.80;;;13.60;99.90;;;;;;5027087;28;20121;-64
2022/07/10 01:03:38;;;;;;;8.50;1.65;;;13.50;99.90;;;;;;5013024;28;20117;-65
2022/07/10 01:06:03;;;;;;;5.50;1.10;;;13.50;99.90;;;;;;5011549;28;20042;-65
2022/07/10 01:08:29;;;;;;;6.60;1.50;;;13.40;99.90;;;;;;5012077;28;20449;-64
2022/07/10 01:10:55;;;;;;;3.20;0.90;;;13.60;99.90;;;;;;5013133;28;20092;-65
2022/07/10 01:13:21;;;;;;;4.82;1.35;;;13.40;99.90;;;;;;5018024;28;20040;-64
2022/07/10 01:15:48;;;;;;;8.13;1.75;;;13.40;99.90;;;;;;5021972;28;20046;-65
2022/07/10 01:18:14;;;;;;;8.63;1.55;;;13.50;99.90;;;;;;5011315;28;20045;-65
2022/07/10 01:20:39;;;;;;;11.15;1.67;;;13.40;99.90;;;;;;5013128;28;20073;-65
2022/07/10 01:23:05;;;;;;;7.72;1.23;;;13.70;99.90;;;;;;5012806;28;20077;-65
2022/07/10 01:25:30;;;;;;;6.63;1.67;;;13.30;99.90;;;;;;5019980;28;20041;-65
2022/07/10 01:27:56;;;;;;;7.47;1.00;;;13.50;99.90;;;;;;5018513;28;20045;-65
2022/07/10 01:30:22;;;;;;;8.35;1.65;;;13.40;99.90;;;;;;5011915;28;20042;-65
2022/07/10 01:32:47;;;;;;;9.60;1.80;;;13.40;99.90;;;;;;5011305;28;20484;-65
2022/07/10 01:35:13;;;;;;;10.18;1.85;;;13.50;99.90;;;;;;5011578;28;20042;-64
2022/07/10 01:37:40;;;;;;;7.15;1.70;;;13.50;99.90;;;;;;5012747;28;20140;-64
2022/07/10 01:40:07;;;;;;;10.80;1.38;;;13.70;99.90;;;;;;5012381;28;20064;-65
2022/07/10 01:42:33;;;;;;;6.65;1.33;;;13.50;99.90;;;;;;5026386;28;20030;-65
2022/07/10 01:44:58;;;;;;;9.13;1.85;;;13.50;99.90;;;;;;5024781;28;20099;-65
2022/07/10 01:47:25;;;;;;;11.88;1.80;;;13.30;99.90;;;;;;5018277;28;20033;-65
2022/07/10 01:49:53;;;;;;;10.52;1.98;;;13.40;99.90;;;;;;5032500;28;20045;-65
2022/07/10 01:52:19;;;;;;;8.50;2.00;;;13.20;99.90;;;;;;5018613;28;20064;-65
2022/07/10 01:54:46;;;;;;;14.05;2.00;;;13.40;99.90;;;;;;5031176;28;20455;-65
2022/07/10 01:57:11;;;;;;;6.00;1.55;;;13.30;99.90;;;;;;5030882;28;20052;-65
2022/07/10 01:59:37;;;;;;;13.18;1.73;;;13.10;99.90;;;;;;5025160;28;20120;-65
2022/07/10 02:02:02;;;;;;;5.68;1.45;;;13.30;99.90;;;;;;5012341;28;20038;-65
2022/07/10 02:04:43;;;;;;;7.53;1.17;;;13.20;99.90;;;;;;5011285;28;20042;-64
2022/07/10 02:07:11;;;;;;;7.97;1.15;;;13.20;99.90;;;;;;5024434;28;20056;-66
2022/07/10 02:09:38;;;;;;;8.82;1.67;;;13.20;99.90;;;;;;5015990;28;20076;-64
2022/07/10 02:12:05;;;;;;;10.40;2.03;;;13.10;99.90;;;;;;5016265;28;20520;-65
2022/07/10 02:14:30;;;;;;;6.00;1.70;;;13.10;99.90;;;;;;5018450;28;20377;-65
2022/07/10 02:16:56;;;;;;;8.93;1.58;;;13.10;99.90;;;;;;5034685;28;20052;-65
2022/07/10 02:19:22;;;;;;;6.80;1.65;;;13.00;99.90;;;;;;5020506;28;20077;-64
2022/07/10 02:21:47;;;;;;;4.45;1.42;;;13.00;99.90;;;;;;5016230;28;20053;-65
2022/07/10 02:24:13;;;;;;;9.63;1.77;;;13.10;99.90;;;;;;5028089;28;20049;-64
2022/07/10 02:26:38;;;;;;;11.90;1.70;;;13.00;99.90;;;;;;5031702;28;20038;-64
2022/07/10 02:29:04;;;;;;;6.45;1.35;;;12.80;99.90;;;;;;5014879;28;20130;-64
2022/07/10 02:31:30;;;;;;;9.85;2.10;;;13.10;99.90;;;;;;5017962;28;20073;-64
2022/07/10 02:33:55;;;;;;;6.95;2.65;;;12.90;99.90;;;;;;5035815;28;20059;-64
2022/07/10 02:36:21;;;;;;;5.13;1.30;;;12.90;99.90;;;;;;5034791;28;20098;-64
2022/07/10 02:38:46;;;;;;;10.93;2.00;;;12.90;99.90;;;;;;5018709;28;20042;-64
2022/07/10 02:41:12;;;;;;;11.45;1.65;;;12.70;99.90;;;;;;5025087;28;20480;-64
2022/07/10 02:43:37;;;;;;;7.20;1.15;;;12.80;99.90;;;;;;5029390;28;20037;-64
2022/07/10 02:46:03;;;;;;;5.38;1.30;;;12.80;99.90;;;;;;5027995;28;20030;-64
2022/07/10 02:48:29;;;;;;;6.80;1.30;;;12.70;99.90;;;;;;5015675;28;20069;-64
2022/07/10 02:50:54;;;;;;;14.30;2.75;;;12.80;99.90;;;;;;5034596;28;20037;-64
2022/07/10 02:53:20;;;;;;;7.10;1.63;;;12.70;99.90;;;;;;5024413;28;20042;-64
2022/07/10 02:55:46;;;;;;;6.45;1.92;;;12.80;99.90;;;;;;5015650;28;20113;-64
2022/07/10 02:58:11;;;;;;;8.32;1.50;;;12.70;99.90;;;;;;5014017;28;20104;-64
2022/07/10 03:00:37;;;;;;;8.45;1.90;;;12.80;99.90;;;;;;5029082;28;20124;-64
2022/07/10 03:03:02;;;;;;;8.13;1.25;;;12.90;99.90;;;;;;5033960;28;20466;-64
2022/07/10 03:05:28;;;;;;;5.70;1.60;;;13.00;99.90;;;;;;5021027;28;20038;-64
2022/07/10 03:07:54;;;;;;;12.02;1.58;;;12.90;99.90;;;;;;5014882;28;20121;-65
2022/07/10 03:10:20;;;;;;;4.57;1.20;;;12.80;99.90;;;;;;5014294;28;20050;-65
2022/07/10 03:12:46;;;;;;;9.98;1.60;;;12.90;99.90;;;;;;5014916;28;20045;-64
2022/07/10 03:15:13;;;;;;;5.13;1.30;;;13.00;99.90;;;;;;5014019;28;20038;-64
2022/07/10 03:17:39;;;;;;;4.75;1.50;;;13.00;99.90;;;;;;5013850;28;20041;-64
2022/07/10 03:20:08;;;;;;;9.10;1.95;;;13.00;99.90;;;;;;5021144;28;20118;-64
2022/07/10 03:22:34;;;;;;;5.38;1.45;;;13.10;99.90;;;;;;5020998;28;20046;-64
2022/07/10 03:25:00;;;;;;;9.93;1.70;;;13.10;99.90;;;;;;5015246;28;20042;-64
2022/07/10 03:27:26;;;;;;;4.95;1.23;;;13.20;99.90;;;;;;5026753;28;20033;-64
2022/07/10 03:29:51;;;;;;;5.18;1.17;;;13.20;99.90;;;;;;5029462;28;20502;-64
2022/07/10 03:32:17;;;;;;;8.02;1.60;;;;;;;;;;5015217;28;20120;-64
2022/07/10 03:34:43;;;;;;;5.28;1.50;;;13.10;99.90;;;;;;5015109;28;20564;-64
2022/07/10 03:37:08;;;;;;;4.32;1.42;;;13.20;99.90;;;;;;5014740;28;20107;-65
2022/07/10 03:39:34;;;;;;;9.15;1.38;;;13.10;99.90;;;;;;5014429;28;20064;-65
2022/07/10 03:41:59;;;;;;;4.32;1.20;;;13.30;99.90;;;;;;5014854;28;20050;-64
2022/07/10 03:44:25;;;;;;;6.45;1.30;;;13.30;99.90;;;;;;5026734;28;20070;-64
2022/07/10 03:46:51;;;;;;;5.47;1.00;;;13.10;99.90;;;;;;5013590;28;20042;-64
2022/07/10 03:49:17;;;;;;;10.88;1.50;;;;;;;;;;5014499;28;20117;-64
2022/07/10 03:51:42;;;;;;;6.93;1.45;;;13.40;99.90;;;;;;5013465;28;20056;-65
2022/07/10 03:54:08;;;;;;;8.25;1.77;;;13.40;99.90;;;;;;5032084;28;20041;-64
2022/07/10 03:59:17;;;;;;;7.13;1.20;;;13.50;99.90;;;;;;5016159;28;20049;-64
2022/07/10 04:01:43;;;;;;;8.80;1.33;;;13.60;99.90;;;;;;5024640;28;20064;-64
2022/07/10 04:04:08;;;;;;;8.05;1.60;;;13.70;99.90;;;;;;5034007;28;20038;-64
2022/07/10 04:06:35;;;;;;;4.93;1.42;;;13.60;99.90;;;;;;5032718;28;20045;-64
2022/07/10 04:09:00;;;;;;;7.13;1.52;;;13.50;99.90;;;;;;5035200;28;20053;-64
2022/07/10 04:11:26;;;;;;;6.15;1.60;;;13.50;99.90;;;;;;5012879;28;20045;-65
2022/07/10 04:13:51;;;;;;;6.88;1.38;;;13.70;99.90;;;;;;5025091;28;20103;-64
2022/07/10 04:16:17;;;;;;;9.07;1.50;;;13.70;99.90;;;;;;5018531;28;20049;-64
2022/07/10 04:18:42;;;;;;;7.30;1.48;;;13.70;99.90;;;;;;5023979;28;20116;-64
2022/07/10 04:21:08;;;;;;;4.78;1.38;;;13.70;99.90;;;;;;5029721;28;20602;-64
2022/07/10 04:23:34;;;;;;;8.13;1.65;;;13.80;99.90;;;;;;5033875;28;20037;-64
2022/07/10 04:26:00;;;;;;;10.07;1.83;;;13.90;99.90;;;;;;5018249;28;20423;-66
2022/07/10 04:28:25;;;;;;;5.57;1.60;;;13.90;99.90;;;;;;5012887;28;20408;-64
2022/07/10 04:30:51;;;;;;;6.47;1.65;;;13.90;99.90;;;;;;5011842;28;20042;-64
2022/07/10 04:33:16;;;;;;;7.53;2.28;;;14.10;99.90;;;;;;5017707;28;20034;-64
2022/07/10 04:35:42;;;;;;;10.27;2.50;;;13.90;99.90;;;;;;5023606;28;20137;-66
2022/07/10 04:38:08;;;;;;;8.70;1.88;;;14.00;99.90;;;;;;5013301;28;20128;-64
2022/07/10 04:40:33;;;;;;;8.77;2.03;;;13.90;99.90;;;;;;5012252;28;20409;-64
2022/07/10 04:42:59;;;;;;;13.05;2.30;;;14.00;99.90;;;;;;5013533;28;20502;-64
2022/07/10 04:45:25;;;;;;;10.75;3.45;;;14.00;99.90;;;;;;5027578;28;20045;-64
2022/07/10 04:47:51;;;;;;;5.65;2.03;;;14.10;99.90;;;;;;5033254;28;20142;-64
2022/07/10 04:50:16;;;;;;;6.93;1.85;;;14.20;99.90;;;;;;5033173;28;20041;-65
2022/07/10 04:52:42;;;;;;;10.88;3.58;;;14.00;99.90;;;;;;4998361;28;20132;-64
2022/07/10 04:55:08;;;;;;;9.38;2.33;;;14.30;99.90;;;;;;5013566;28;20049;-64
2022/07/10 04:57:33;;;;;;;9.07;1.95;;;14.20;99.90;;;;;;5013068;28;20038;-64
2022/07/10 04:59:59;;;;;;;6.68;1.80;;;14.10;99.90;;;;;;5023176;28;20041;-64
2022/07/10 05:02:25;;;;;;;8.70;2.40;;;14.40;99.90;;;;;;5018934;28;20049;-64
2022/07/10 05:04:51;;;;;;;16.02;2.78;;;14.20;99.90;;;;;;5023928;28;20034;-64
2022/07/10 05:07:16;;;;;;;8.02;2.40;;;14.30;99.90;;;;;;5026845;28;20119;-65
2022/07/10 05:09:42;;;;;;;6.07;2.13;;;14.50;99.90;;;;;;5012983;28;20046;-65
2022/07/10 05:12:07;;;;;;;11.23;3.33;;;14.30;99.90;;;;;;5013159;28;20034;-64
2022/07/10 05:14:33;;;;;;;7.53;2.17;;;14.30;99.90;;;;;;5026994;28;20042;-63
2022/07/10 05:16:59;;;;;;;8.15;2.63;;;14.40;99.90;;;;;;5013321;28;20507;-63
2022/07/10 05:19:24;;;;;;;14.23;2.45;;;14.30;99.90;;;;;;5012735;28;20057;-64
2022/07/10 05:21:50;;;;;;;9.07;2.88;;;14.30;99.90;;;;;;5012501;28;20045;-64
2022/07/10 05:24:15;;;;;;;10.95;2.85;;;14.40;99.90;;;;;;5013149;28;20069;-64
2022/07/10 05:26:41;;;;;;;7.95;2.83;;;14.40;99.90;;;;;;5012980;28;20428;-64
2022/07/10 05:29:07;;;;;;;8.82;2.55;;;14.50;99.90;;;;;;5012868;28;20072;-63
2022/07/10 05:31:32;;;;;;;10.32;2.58;;;14.60;99.90;;;;;;5026546;28;20540;-64
2022/07/10 05:33:58;;;;;;;10.55;2.97;;;14.30;99.90;;;;;;5013051;28;20030;-64
2022/07/10 05:36:24;;;;;;;10.50;2.25;;;14.40;99.90;;;;;;5012531;28;20042;-66
2022/07/10 05:38:50;;;;;;;8.82;3.42;;;14.40;99.90;;;;;;5012300;28;20120;-64
2022/07/10 05:41:15;;;;;;;8.93;3.05;;;14.40;99.90;;;;;;5012636;28;20050;-64
2022/07/10 05:43:41;;;;;;;11.40;2.13;;;;;;;;;;5025205;28;20033;-64
2022/07/10 05:46:07;;;;;;;7.60;2.22;;;14.50;99.90;;;;;;5011618;28;20046;-63
2022/07/10 05:48:33;;;;;;;6.68;1.83;;;14.40;99.90;;;;;;5012775;28;20492;-64
2022/07/10 05:50:59;;;;;;;6.82;2.17;;;;;;;;;;5026011;28;20038;-66
2022/07/10 05:53:25;;;;;;;6.32;1.55;;;14.70;99.90;;;;;;5011228;28;20049;-64
2022/07/10 05:55:50;;;;;;;7.15;1.55;;;14.80;99.90;;;;;;5025159;28;20507;-64
2022/07/10 05:58:16;;;;;;;4.35;1.60;;;14.80;99.90;;;;;;5012436;28;20116;-64
2022/07/10 06:00:45;;;;;;;5.18;2.05;;;14.70;99.90;;;;;;5025102;28;20045;-64
2022/07/10 06:03:11;;;;;;;7.40;2.00;;;14.60;99.90;;;;;;5012372;28;20030;-64
2022/07/10 06:05:38;;;;;;;13.00;2.28;;;14.80;99.90;;;;;;5012132;28;20037;-65
2022/07/10 06:08:04;;;;;;;8.45;1.63;;;14.80;99.90;;;;;;5010947;28;20041;-64
2022/07/10 06:10:29;;;;;;;12.13;2.10;;;14.80;99.90;;;;;;5025008;28;20364;-63
2022/07/10 06:12:55;;;;;;;6.18;1.80;;;14.90;99.90;;;;;;5027785;28;20103;-64
2022/07/10 06:15:20;;;;;;;7.03;2.22;;;14.80;99.90;;;;;;5022932;28;20510;-64
2022/07/10 06:17:46;;;;;;;7.72;2.30;;;14.80;99.90;;;;;;5015705;28;20496;-64
2022/07/10 06:20:11;;;;;;;8.27;3.08;;;14.90;99.90;;;;;;5011642;28;20037;-64
2022/07/10 06:22:37;;;;;;;6.82;2.22;;;14.80;99.90;;;;;;5010662;28;20432;-64
2022/07/10 06:25:05;;;;;;;9.10;3.40;;;14.90;99.90;;;;;;5011067;28;20461;-64
2022/07/10 06:27:32;;;;;;;8.50;1.77;;;14.90;99.90;;;;;;5023444;28;20120;-64
2022/07/10 06:29:58;;;;;;;10.60;2.38;;;14.80;99.90;;;;;;5025993;28;20045;-64
2022/07/10 06:32:24;;;;;;;6.95;1.80;;;14.90;99.90;;;;;;5023130;28;20037;-63
2022/07/10 06:34:54;;;;;;;11.45;3.42;;;14.80;99.90;;;;;;5015257;28;20045;-64
2022/07/10 06:37:20;;;;;;;8.57;2.67;;;14.90;99.90;;;;;;5016012;28;20049;-65
2022/07/10 06:39:49;;;;;;;11.38;2.53;;;15.00;99.90;;;;;;5011974;28;20050;-64
2022/07/10 06:42:15;;;;;;;10.93;2.80;;;14.90;99.90;;;;;;5012335;28;20038;-64
2022/07/10 06:44:42;;;;;;;6.75;2.08;;;15.20;99.90;;;;;;5012426;28;20034;-64
2022/07/10 06:49:54;;;;;;;9.95;2.80;;;15.00;99.90;;;;;;5010513;28;20053;-64
2022/07/10 06:52:19;;;;;;;3.90;1.88;;;15.20;99.90;;;;;;5012036;28;20046;-63
2022/07/10 06:54:45;;;;;;;7.82;2.17;;;15.10;99.90;;;;;;5013552;28;20052;-63
2022/07/10 06:57:11;;;;;;;6.63;1.83;;;14.80;99.90;;;;;;5015065;28;20061;-64
2022/07/10 06:59:37;;;;;;;5.28;1.90;;;15.20;99.90;;;;;;5033983;28;20076;-63
2022/07/10 07:02:03;;;;;;;6.07;2.50;;;15.10;99.90;;;;;;5035142;28;20044;-64
2022/07/10 07:04:28;;;;;;;5.53;2.15;;;15.00;99.90;;;;;;5015288;28;20046;-63
2022/07/10 07:06:54;;;;;;;6.20;1.70;;;15.00;99.90;;;;;;5015708;28;20537;-64
2022/07/10 07:09:19;;;;;;;9.80;2.22;;;15.00;99.90;;;;;;5015530;28;20128;-63
2022/07/10 07:11:45;;;;;;;9.20;2.60;;;15.00;99.90;;;;;;5022779;28;20089;-64
2022/07/10 07:14:11;;;;;;;5.47;1.80;;;15.10;99.90;;;;;;5020545;28;20074;-65
2022/07/10 07:16:45;;;;;;;7.03;2.03;;;15.00;99.90;;;;;;5015027;28;20504;-64
2022/07/10 07:19:17;;;;;;;4.63;1.48;;;15.20;99.90;;;;;;5030312;28;20049;-64
2022/07/10 07:24:27;;;;;;;7.63;1.90;;;15.00;99.90;;;;;;5010950;28;20496;-64
2022/07/10 07:26:52;;;;;;;3.17;1.10;;;15.10;99.90;;;;;;5013676;28;20061;-64
2022/07/10 07:29:18;;;;;;;4.38;1.00;;;15.10;99.90;;;;;;5014819;28;20096;-64
2022/07/10 07:31:44;;;;;;;1.92;1.08;;;15.10;99.90;;;;;;5032718;28;20057;-64
2022/07/10 07:34:10;;;;;;;3.90;1.60;;;15.40;99.90;;;;;;5050061;28;20145;-64
2022/07/10 07:36:36;;;;;;;5.38;2.20;;;15.40;99.90;;;;;;5030181;28;20048;-64
2022/07/10 07:39:03;;;;;;;4.43;1.60;;;15.40;99.90;;;;;;5014648;28;20049;-64
2022/07/10 07:41:28;;;;;;;7.40;1.75;;;15.60;99.90;;;;;;5005420;28;20089;-64
2022/07/10 07:43:54;;;;;;;7.57;1.38;;;15.50;99.90;;;;;;5028862;28;20522;-64
2022/07/10 07:46:21;;;;;;;4.43;1.50;;;15.60;99.90;;;;;;5024911;28;20490;-64
2022/07/10 07:48:46;;;;;;;6.13;1.23;;;15.70;99.90;;;;;;5017149;28;20407;-64
2022/07/10 07:51:13;;;;;;;3.08;1.02;;;15.50;99.90;;;;;;5034119;28;20041;-63
2022/07/10 07:53:38;;;;;;;6.57;1.65;;;15.70;99.90;;;;;;5032797;28;20045;-64
2022/07/10 07:56:04;;;;;;;7.85;1.08;;;15.40;99.90;;;;;;5028678;28;20472;-65
2022/07/10 07:58:30;;;;;;;4.78;1.02;;;15.40;99.90;;;;;;5024195;28;20053;-64
2022/07/10 08:00:56;;;;;;;2.97;0.93;;;15.50;99.90;;;;;;5030375;28;20381;-64
2022/07/10 08:03:22;;;;;;;4.22;1.08;;;15.30;99.90;;;;;;5022732;28;20045;-63
2022/07/10 08:05:48;;;;;;;3.58;1.00;;;15.50;99.90;;;;;;5018914;28;20129;-64
2022/07/10 08:08:13;;;;;;;3.45;1.08;;;15.50;99.90;;;;;;5032887;28;20148;-64
2022/07/10 08:10:39;;;;;;;2.80;0.90;;;15.60;99.90;;;;;;5019192;28;20089;-63
2022/07/10 08:13:05;;;;;;;5.97;1.30;;;15.20;99.90;;;;;;5027788;28;20038;-65
2022/07/10 08:15:30;;;;;;;2.85;0.95;;;15.60;99.90;;;;;;5014573;28;20392;-64
2022/07/10 08:17:58;;;;;;;2.50;1.20;;;15.50;99.90;;;;;;5032702;28;20480;-65
2022/07/10 08:20:25;;;;;;;3.85;1.50;;;15.80;99.90;;;;;;5033849;28;20565;-64
2022/07/10 08:22:52;;;;;;;3.88;1.00;;;15.50;99.90;;;;;;5016683;28;20045;-64
2022/07/10 08:25:18;;;;;;;5.55;1.38;;;15.50;99.90;;;;;;5037464;28;20439;-64
2022/07/10 08:27:44;;;;;;;3.28;1.13;;;15.60;99.90;;;;;;5034404;28;20096;-66
2022/07/10 08:30:11;;;;;;;6.85;1.35;;;15.50;99.90;;;;;;5014015;28;20042;-64
2022/07/10 08:32:37;;;;;;;5.18;1.50;;;15.70;99.90;;;;;;5026213;28;20030;-63
2022/07/10 08:35:04;;;;;;;4.35;1.40;;;15.70;99.90;;;;;;5029038;28;20069;-63
2022/07/10 08:37:30;;;;;;;6.55;2.00;;;15.60;99.90;;;;;;5012550;28;20584;-63
2022/07/10 08:39:55;;;;;;;6.07;1.20;;;15.70;99.90;;;;;;5024522;28;20144;-63
2022/07/10 08:42:22;;;;;;;4.28;1.20;;;15.60;99.90;;;;;;5031522;28;20115;-64
2022/07/10 08:44:48;;;;;;;8.90;1.63;;;15.60;99.90;;;;;;5021542;28;20474;-63
2022/07/10 08:47:14;;;;;;;5.20;1.52;;;15.70;99.90;;;;;;5017033;28;20124;-63
2022/07/10 08:49:46;;;;;;;4.60;1.95;;;15.50;99.90;;;;;;5031714;28;20041;-64
2022/07/10 08:52:33;;;;;;;5.85;1.48;;;15.80;99.90;;;;;;5031762;28;20045;-65
2022/07/10 08:54:58;;;;;;;6.07;2.13;;;15.80;99.90;;;;;;5022274;28;20048;-64
2022/07/10 08:57:25;;;;;;;4.10;1.50;;;15.80;99.90;;;;;;5012149;28;20041;-64
2022/07/10 08:59:51;;;;;;;3.95;1.80;;;15.90;99.90;;;;;;5011992;28;20045;-63
2022/07/10 09:02:17;;;;;;;4.40;1.25;;;15.90;99.90;;;;;;5012160;28;20038;-64
2022/07/10 09:04:42;;;;;;;4.43;1.13;;;16.10;99.90;;;;;;5013516;28;20030;-64
2022/07/10 09:07:09;;;;;;;3.13;1.40;;;16.00;99.90;;;;;;5011585;28;20091;-64
2022/07/10 09:09:54;;;;;;;6.47;1.40;;;15.80;99.90;;;;;;5012623;28;20053;-64
2022/07/10 09:12:21;;;;;;;3.75;1.35;;;16.00;99.90;;;;;;5013192;28;20045;-64
2022/07/10 09:14:47;;;;;;;6.28;1.30;;;16.00;99.90;;;;;;5013211;28;20052;-65
2022/07/10 09:17:13;;;;;;;6.57;1.50;;;16.10;99.90;;;;;;5011411;28;20049;-64
2022/07/10 09:19:39;;;;;;;5.65;1.40;;;16.00;99.90;;;;;;5011267;28;20046;-64
2022/07/10 09:22:07;;;;;;;5.57;1.55;;;16.30;99.90;;;;;;5009045;28;20030;-64
2022/07/10 09:24:43;;;;;;;3.97;1.45;;;16.20;99.90;;;;;;5011485;28;20069;-64
2022/07/10 09:27:10;;;;;;;7.15;1.55;;;16.20;99.90;;;;;;5008741;28;20060;-64
2022/07/10 09:29:57;;;;;;;6.55;1.75;;;16.20;99.90;;;;;;5011639;28;20050;-64
2022/07/10 09:32:23;;;;;;;3.53;1.58;;;16.30;99.90;;;;;;5012547;28;20496;-64
2022/07/10 09:36:04;;;;;;;9.15;1.95;;;16.10;99.90;;;;;;5011905;28;20148;-63
2022/07/10 09:37:40;;;;;;;4.85;1.67;;;16.10;99.90;;;;;;5007601;28;20084;-64
2022/07/10 09:40:07;;;;;;;9.10;1.58;;;16.20;99.90;;;;;;5010570;28;20535;-63
2022/07/10 09:42:38;;;;;;;7.85;1.77;;;16.20;99.90;;;;;;5011588;28;20041;-64
2022/07/10 09:45:12;;;;;;;5.35;1.77;;;16.40;99.90;;;;;;5009971;28;20511;-64
2022/07/10 09:47:46;;;;;;;7.57;2.05;;;16.30;99.90;;;;;;4998892;28;20041;-64
2022/07/10 09:50:34;;;;;;;5.32;2.45;;;16.40;99.90;;;;;;4991701;28;20044;-65
2022/07/10 09:53:01;;;;;;;5.00;1.83;;;16.40;99.90;;;;;;5012208;28;20042;-64
2022/07/10 09:55:35;;;;;;;6.43;1.40;;;16.30;99.90;;;;;;5017119;28;20106;-65
2022/07/10 09:58:06;;;;;;;4.65;1.30;;;16.50;99.90;;;;;;5018058;28;20472;-65
2022/07/10 10:00:40;;;;;;;3.00;1.30;;;16.40;99.90;;;;;;5018308;28;20044;-64
2022/07/10 10:03:08;;;;;;;3.90;1.58;;;16.30;99.90;;;;;;5016303;28;20042;-65
2022/07/10 10:06:05;;;;;;;5.10;1.67;;;16.20;99.90;;;;;;5017570;28;20143;-63
2022/07/10 10:08:33;;;;;;;7.40;1.73;;;16.10;99.90;;;;;;4998079;28;20136;-65
2022/07/10 10:11:01;;;;;;;6.70;1.70;;;16.20;99.90;;;;;;5015336;28;20505;-65
2022/07/10 10:13:27;;;;;;;8.52;1.58;;;16.30;99.90;;;;;;5005129;28;20037;-65
2022/07/10 10:15:54;;;;;;;6.65;1.50;;;16.50;99.90;;;;;;5015920;28;20042;-65
2022/07/10 10:18:26;;;;;;;7.45;1.80;;;16.40;99.90;;;;;;5015111;28;20393;-65
2022/07/10 10:20:54;;;;;;;6.20;1.70;;;16.70;99.90;;;;;;5014407;28;20053;-64
2022/07/10 10:23:23;;;;;;;8.15;1.75;;;16.80;99.90;;;;;;4998827;28;20105;-65
2022/07/10 10:25:51;;;;;;;6.30;2.00;;;16.80;99.90;;;;;;5010714;28;20636;-65
2022/07/10 10:28:23;;;;;;;4.60;1.63;;;17.20;99.90;;;;;;5016575;28;20069;-65
2022/07/10 10:30:50;;;;;;;5.15;1.55;;;17.30;99.90;;;;;;5020471;28;20037;-65
2022/07/10 10:33:42;;;;;;;7.07;1.85;;;17.50;99.90;;;;;;5021094;28;20054;-65
2022/07/10 10:36:09;;;;;;;5.68;1.45;;;17.60;99.90;;;;;;5012243;28;20080;-65
2022/07/10 10:38:55;;;;;;;4.22;1.48;;;17.50;99.90;;;;;;5018416;28;20050;-65
2022/07/10 10:41:26;;;;;;;7.50;2.10;;;17.20;99.90;;;;;;5019867;28;20052;-65
2022/07/10 10:44:25;;;;;;;3.92;1.40;;;17.10;99.90;;;;;;5020315;28;20030;-64
2022/07/10 10:46:54;;;;;;;7.03;2.28;;;17.30;99.90;;;;;;4987050;28;20124;-65
2022/07/10 10:49:26;;;;;;;2.38;1.20;;;17.20;99.90;;;;;;5023396;28;20038;-64
2022/07/10 10:51:59;;;;;;;4.90;1.60;;;16.90;99.90;;;;;;5021607;28;20049;-63
2022/07/10 10:54:48;;;;;;;5.18;1.48;;;17.20;99.90;;;;;;5009238;28;20108;-65
2022/07/10 10:57:16;;;;;;;3.83;1.40;;;17.40;99.90;;;;;;5011303;28;20400;-65
2022/07/10 10:59:48;;;;;;;2.47;1.45;;;17.50;99.90;;;;;;5024251;28;20088;-65
2022/07/10 11:02:32;;;;;;;5.95;1.40;;;17.80;99.90;;;;;;5022965;28;20045;-65
2022/07/10 11:05:19;;;;;;;6.67;1.30;;;17.70;99.90;;;;;;5033637;28;20041;-65
2022/07/10 11:07:59;;;;;;;3.95;1.23;;;17.80;99.90;;;;;;5024212;28;20504;-65
2022/07/10 11:10:30;;;;;;;3.83;1.13;;;17.40;99.90;;;;;;5033059;28;20546;-65
2022/07/10 11:13:09;;;;;;;5.78;1.13;;;17.70;99.90;;;;;;5025035;28;20088;-64
2022/07/10 11:15:38;;;;;;;5.70;1.35;;;17.50;99.90;;;;;;5037430;28;20045;-65
2022/07/10 11:18:12;;;;;;;5.00;1.50;;;19.40;99.90;;;;;;5037987;28;20451;-65
2022/07/10 11:20:49;;;;;;;5.15;2.25;;;17.40;99.90;;;;;;5034578;28;20045;-65
2022/07/10 11:23:58;;;;;;;4.93;2.45;;;17.30;99.90;;;;;;5024906;28;20496;-65
2022/07/10 11:26:34;;;;;;;4.68;1.67;;;17.40;99.90;;;;;;5023354;28;20042;-65
2022/07/10 11:29:03;;;;;;;4.05;1.55;;;17.10;99.90;;;;;;5022209;28;20042;-64
2022/07/10 11:31:31;;;;;;;4.13;1.92;;;18.00;99.90;;;;;;5024476;28;20037;-65
2022/07/10 11:33:57;;;;;;;6.60;2.10;;;17.50;99.90;;;;;;5020132;28;20045;-66
2022/07/10 11:36:31;;;;;;;6.38;2.33;;;17.20;99.90;;;;;;5021306;28;20081;-65
2022/07/10 11:39:01;;;;;;;7.50;2.00;;;17.30;99.90;;;;;;5025568;28;20049;-65
2022/07/10 11:41:28;;;;;;;5.80;1.58;;;17.20;99.90;;;;;;5043955;28;20431;-66
2022/07/10 11:43:59;;;;;;;4.97;1.73;;;18.40;99.90;;;;;;5026168;28;20034;-65
2022/07/10 11:46:27;;;;;;;6.68;2.53;;;17.20;99.90;;;;;;5023658;28;20048;-65
2022/07/10 11:48:56;;;;;;;10.85;1.75;;;17.20;99.90;;;;;;5021942;28;20074;-66
2022/07/10 11:51:27;;;;;;;7.32;1.70;;;17.20;99.90;;;;;;5019896;28;20046;-65
2022/07/10 11:54:01;;;;;;;4.95;1.63;;;17.20;99.90;;;;;;5022550;28;20125;-65
2022/07/10 11:56:29;;;;;;;4.35;1.77;;;17.20;99.90;;;;;;5040243;28;20073;-66
2022/07/10 11:58:59;;;;;;;7.38;1.80;;;17.20;99.90;;;;;;5025860;28;20069;-65
2022/07/10 12:01:26;;;;;;;8.05;2.17;;;17.40;99.90;;;;;;5040954;28;20033;-66
2022/07/10 12:04:03;;;;;;;9.45;1.55;;;17.30;99.90;;;;;;5026529;28;20069;-66
2022/07/10 12:06:30;;;;;;;3.92;1.20;;;17.40;99.90;;;;;;5005100;28;20042;-65
2022/07/10 12:08:56;;;;;;;6.18;1.63;;;17.50;99.90;;;;;;5031765;28;20049;-65
2022/07/10 12:11:22;;;;;;;6.03;1.52;;;17.30;99.90;;;;;;5025269;28;20048;-64
2022/07/10 12:13:50;;;;;;;5.07;1.50;;;17.50;99.90;;;;;;5040892;28;20048;-65
2022/07/10 12:16:16;;;;;;;7.38;1.80;;;17.50;99.90;;;;;;5043699;28;20124;-66
2022/07/10 12:18:43;;;;;;;7.05;1.88;;;17.20;99.90;;;;;;5041615;28;20123;-63
2022/07/10 12:21:11;;;;;;;7.15;1.55;;;17.40;99.90;;;;;;5040720;28;20057;-65
2022/07/10 12:23:40;;;;;;;3.42;1.17;;;17.70;99.90;;;;;;5030558;28;20447;-66
2022/07/10 12:26:09;;;;;;;6.80;1.30;;;17.30;99.90;;;;;;5034074;28;20534;-65
2022/07/10 12:28:55;;;;;;;5.15;1.33;;;17.70;99.90;;;;;;5023738;28;20038;-65
2022/07/10 12:31:27;;;;;;;2.50;0.93;;;17.50;99.90;;;;;;5021595;28;20052;-65
2022/07/10 12:33:54;;;;;;;4.15;1.30;;;17.50;99.90;;;;;;5018775;28;20053;-66
2022/07/10 12:36:20;;;;;;;4.45;1.20;;;17.60;99.90;;;;;;5033548;28;20045;-66
2022/07/10 12:38:55;;;;;;;4.68;1.27;;;17.60;99.90;;;;;;5021916;28;20041;-66
2022/07/10 12:41:24;;;;;;;;;;;17.60;99.90;;;;;;5036938;28;20082;-65
2022/07/10 12:43:50;;;;;;;9.32;1.20;;;17.60;99.90;;;;;;5037024;28;20000;-65
2022/07/10 12:46:25;;;;;;;3.60;1.10;;;17.70;99.90;;;;;;5026126;28;20135;-66
2022/07/10 12:49:06;;;;;;;;;;;17.60;99.90;;;;;;5031187;28;20562;-65
2022/07/10 12:51:43;;;;;;;4.03;1.65;;;17.80;99.90;;;;;;5018114;28;19917;-65
2022/07/10 12:54:08;;;;;;;4.35;1.00;;;17.40;99.90;;;;;;5023143;28;20116;-65
2022/07/10 12:56:40;;;;;;;4.60;1.30;;;17.80;99.90;;;;;;5036187;28;20092;-66
2022/07/10 12:59:14;;;;;;;7.05;1.10;;;17.60;99.90;;;;;;5035772;28;20049;-65